sensor_id;sensor_type;location;lat;lon;timestamp;P1;P4;P2;P0;N10;N4;N25;N1;N05;TS
77638;SPS30;66802;52.574;14.398;2024-03-17T00:01:36;7.02;6.17;4.48;2.27;18.20;18.08;17.65;15.59;10.06;0.89
77638;SPS30;66802;52.574;14.398;2024-03-17T00:04:02;7.41;6.52;4.74;2.41;19.33;19.21;18.75;16.59;10.75;0.89
77638;SPS30;66802;52.574;14.398;2024-03-17T00:06:28;7.67;6.73;4.85;2.41;19.30;19.17;18.69;16.41;10.40;0.92
77638;SPS30;66802;52.574;14.398;2024-03-17T00:08:54;7.45;6.52;4.66;2.25;18.05;17.92;17.45;15.20;9.38;0.94
77638;SPS30;66802;52.574;14.398;2024-03-17T00:11:20;7.44;6.53;4.70;2.32;18.60;18.47;18.01;15.79;9.95;0.92
77638;SPS30;66802;52.574;14.398;2024-03-17T00:13:45;6.26;5.50;4.00;2.03;16.31;16.21;15.83;14.00;9.07;0.90
77638;SPS30;66802;52.574;14.398;2024-03-17T00:16:11;6.67;5.89;4.34;2.30;18.47;18.36;17.96;16.07;10.77;0.88
77638;SPS30;66802;52.574;14.398;2024-03-17T00:18:38;6.23;5.49;4.04;2.12;17.02;16.91;16.54;14.76;9.83;0.89
77638;SPS30;66802;52.574;14.398;2024-03-17T00:21:04;6.59;5.82;4.30;2.29;18.37;18.26;17.88;16.01;10.78;0.88
77638;SPS30;66802;52.574;14.398;2024-03-17T00:23:32;7.08;6.24;4.56;2.36;18.91;18.79;18.37;16.32;10.72;0.91
77638;SPS30;66802;52.574;14.398;2024-03-17T00:25:58;6.50;5.72;4.15;2.10;16.81;16.70;16.30;14.39;9.27;0.92
77638;SPS30;66802;52.574;14.398;2024-03-17T00:28:23;6.79;5.96;4.30;2.14;17.18;17.06;16.64;14.63;9.30;0.93
77638;SPS30;66802;52.574;14.398;2024-03-17T00:30:50;6.81;6.00;4.38;2.26;18.12;18.01;17.60;15.63;10.24;0.91
77638;SPS30;66802;52.574;14.398;2024-03-17T00:33:30;6.00;5.32;3.95;2.16;17.28;17.18;16.83;15.17;10.38;0.87
77638;SPS30;66802;52.574;14.398;2024-03-17T00:35:56;6.53;5.77;4.24;2.24;17.96;17.85;17.46;15.60;10.42;0.89
77638;SPS30;66802;52.574;14.398;2024-03-17T00:38:21;7.09;6.27;4.63;2.47;19.83;19.71;19.30;17.29;11.65;0.88
77638;SPS30;66802;52.574;14.398;2024-03-17T00:40:50;7.29;6.46;4.82;2.64;21.14;21.03;20.61;18.59;12.76;0.86
77638;SPS30;66802;52.574;14.398;2024-03-17T00:43:15;6.51;5.75;4.25;2.26;18.14;18.03;17.65;15.81;10.63;0.87
77638;SPS30;66802;52.574;14.398;2024-03-17T00:45:41;6.91;6.09;4.48;2.35;18.84;18.72;18.31;16.33;10.86;0.87
77638;SPS30;66802;52.574;14.398;2024-03-17T00:48:06;6.79;6.00;4.43;2.36;18.89;18.78;18.38;16.46;11.06;0.87
77638;SPS30;66802;52.574;14.398;2024-03-17T00:50:32;7.41;6.57;4.90;2.70;21.60;21.48;21.06;19.01;13.09;0.84
77638;SPS30;66802;52.574;14.398;2024-03-17T00:52:57;7.24;6.38;4.68;2.44;19.57;19.45;19.01;16.93;11.21;0.88
77638;SPS30;66802;52.574;14.398;2024-03-17T00:55:28;7.48;6.57;4.74;2.35;18.86;18.73;18.27;16.05;10.17;0.91
77638;SPS30;66802;52.574;14.398;2024-03-17T00:57:53;7.44;6.52;4.67;2.28;18.25;18.13;17.66;15.42;9.60;0.94
77638;SPS30;66802;52.574;14.398;2024-03-17T04:01:53;6.40;5.63;4.09;2.07;16.58;16.47;16.08;14.20;9.16;0.89
77638;SPS30;66802;52.574;14.398;2024-03-17T04:04:19;6.32;5.58;4.11;2.17;17.38;17.28;16.91;15.10;10.09;0.87
77638;SPS30;66802;52.574;14.398;2024-03-17T04:06:44;7.20;6.32;4.56;2.27;18.20;18.07;17.63;15.49;9.84;0.91
77638;SPS30;66802;52.574;14.398;2024-03-17T04:09:09;6.99;6.09;4.31;2.01;16.11;15.98;15.53;13.37;7.95;0.95
77638;SPS30;66802;52.574;14.398;2024-03-17T04:11:35;7.53;6.58;4.71;2.27;18.18;18.05;17.57;15.29;9.42;0.92
77638;SPS30;66802;52.574;14.398;2024-03-17T04:14:01;8.57;7.49;5.35;2.56;20.52;20.37;19.82;17.21;10.53;0.93
77638;SPS30;66802;52.574;14.398;2024-03-17T04:16:27;6.35;5.56;3.99;1.94;15.54;15.43;15.03;13.12;8.15;0.93
77638;SPS30;66802;52.574;14.398;2024-03-17T04:18:53;6.47;5.69;4.14;2.11;16.88;16.77;16.38;14.49;9.39;0.90
77638;SPS30;66802;52.574;14.398;2024-03-17T04:21:18;6.98;6.14;4.48;2.31;18.49;18.37;17.95;15.92;10.42;0.89
77638;SPS30;66802;52.574;14.398;2024-03-17T04:23:46;6.30;5.56;4.07;2.13;17.04;16.94;16.56;14.75;9.76;0.88
77638;SPS30;66802;52.574;14.398;2024-03-17T04:26:11;6.24;5.48;3.97;2.00;16.06;15.95;15.57;13.74;8.83;0.91
77638;SPS30;66802;52.574;14.398;2024-03-17T04:28:38;5.86;5.17;3.81;2.03;16.23;16.14;15.79;14.13;9.48;0.88
77638;SPS30;66802;52.574;14.398;2024-03-17T04:31:05;6.46;5.69;4.15;2.13;17.11;17.00;16.61;14.73;9.63;0.90
77638;SPS30;66802;52.574;14.398;2024-03-17T04:33:34;6.88;6.03;4.33;2.12;17.02;16.90;16.47;14.40;9.02;0.92
77638;SPS30;66802;52.574;14.398;2024-03-17T04:36:00;6.48;5.69;4.12;2.07;16.60;16.49;16.10;14.19;9.09;0.90
77638;SPS30;66802;52.574;14.398;2024-03-17T04:38:27;6.48;5.70;4.13;2.08;16.67;16.56;16.16;14.25;9.15;0.90
77638;SPS30;66802;52.574;14.398;2024-03-17T04:40:53;6.37;5.60;4.06;2.05;16.46;16.35;15.96;14.08;9.07;0.90
77638;SPS30;66802;52.574;14.398;2024-03-17T04:43:32;6.65;5.85;4.26;2.19;17.53;17.42;17.02;15.08;9.84;0.89
77638;SPS30;66802;52.574;14.398;2024-03-17T04:46:01;7.42;6.52;4.74;2.41;19.32;19.20;18.75;16.58;10.74;0.90
77638;SPS30;66802;52.574;14.398;2024-03-17T04:48:29;8.06;7.07;5.11;2.56;20.52;20.38;19.89;17.50;11.17;0.92
77638;SPS30;66802;52.574;14.398;2024-03-17T04:50:56;6.87;6.03;4.36;2.17;17.40;17.28;16.85;14.81;9.42;0.92
77638;SPS30;66802;52.574;14.398;2024-03-17T04:53:21;7.63;6.69;4.80;2.34;18.79;18.65;18.18;15.88;9.91;0.93
77638;SPS30;66802;52.574;14.398;2024-03-17T04:55:46;7.99;6.98;4.95;2.32;18.60;18.46;17.95;15.49;9.28;0.95
77638;SPS30;66802;52.574;14.398;2024-03-17T04:58:12;7.43;6.48;4.60;2.16;17.31;17.18;16.70;14.41;8.64;0.96
77638;SPS30;66802;52.574;14.398;2024-03-17T05:00:37;7.54;6.59;4.70;2.25;18.06;17.92;17.44;15.15;9.27;0.94
77638;SPS30;66802;52.574;14.398;2024-03-17T05:03:06;6.86;6.03;4.39;2.24;17.94;17.82;17.40;15.40;9.99;0.89
77638;SPS30;66802;52.574;14.398;2024-03-17T05:05:34;6.57;5.80;4.27;2.27;18.19;18.08;17.69;15.83;10.61;0.88
77638;SPS30;66802;52.574;14.398;2024-03-17T05:08:00;6.16;5.44;4.01;2.13;17.09;16.99;16.62;14.88;9.98;0.89
77638;SPS30;66802;52.574;14.398;2024-03-17T05:10:25;6.73;5.95;4.40;2.35;18.85;18.74;18.35;16.45;11.10;0.88
77638;SPS30;66802;52.574;14.398;2024-03-17T05:12:50;6.55;5.78;4.24;2.22;17.77;17.66;17.27;15.39;10.20;0.87
77638;SPS30;66802;52.574;14.398;2024-03-17T05:15:16;6.33;5.60;4.13;2.20;17.64;17.54;17.16;15.37;10.34;0.87
77638;SPS30;66802;52.574;14.398;2024-03-17T05:17:41;7.27;6.40;4.65;2.37;19.02;18.89;18.45;16.33;10.59;0.90
77638;SPS30;66802;52.574;14.398;2024-03-17T05:20:07;7.51;6.59;4.74;2.33;18.68;18.55;18.08;15.83;9.94;0.93
77638;SPS30;66802;52.574;14.398;2024-03-17T05:22:33;7.26;6.37;4.60;2.29;18.37;18.24;17.79;15.64;9.94;0.92
77638;SPS30;66802;52.574;14.398;2024-03-17T05:24:59;7.26;6.38;4.63;2.34;18.80;18.68;18.23;16.10;10.39;0.90
77638;SPS30;66802;52.574;14.398;2024-03-17T05:27:24;6.46;5.71;4.23;2.28;18.29;18.19;17.81;16.00;10.86;0.86
77638;SPS30;66802;52.574;14.398;2024-03-17T05:29:50;6.34;5.62;4.18;2.27;18.19;18.09;17.72;15.95;10.89;0.86
77638;SPS30;66802;52.574;14.398;2024-03-17T05:32:16;6.28;5.54;4.06;2.12;16.97;16.87;16.49;14.69;9.71;0.88
77638;SPS30;66802;52.574;14.398;2024-03-17T05:34:41;7.10;6.26;4.60;2.41;19.34;19.22;18.80;16.77;11.14;0.87
77638;SPS30;66802;52.574;14.398;2024-03-17T05:37:08;8.13;7.15;5.21;2.67;21.45;21.31;20.82;18.45;12.04;0.90
77638;SPS30;66802;52.574;14.398;2024-03-17T05:39:36;7.44;6.55;4.78;2.46;19.74;19.61;19.16;17.00;11.13;0.88
77638;SPS30;66802;52.574;14.398;2024-03-17T05:42:02;7.15;6.33;4.68;2.51;20.08;19.96;19.54;17.53;11.84;0.85
77638;SPS30;66802;52.574;14.398;2024-03-17T05:44:29;6.76;5.97;4.39;2.32;18.59;18.48;18.08;16.16;10.79;0.87
77638;SPS30;66802;52.574;14.398;2024-03-17T05:46:54;7.50;6.57;4.73;2.34;18.73;18.60;18.14;15.90;10.03;0.92
77638;SPS30;66802;52.574;14.398;2024-03-17T05:49:23;8.44;7.36;5.20;2.42;19.39;19.24;18.69;16.08;9.54;0.96
77638;SPS30;66802;52.574;14.398;2024-03-17T05:51:51;6.89;6.02;4.30;2.06;16.50;16.38;15.94;13.85;8.48;0.93
77638;SPS30;66802;52.574;14.398;2024-03-17T05:54:16;7.90;6.92;4.95;2.39;19.16;19.02;18.53;16.14;9.97;0.93
77638;SPS30;66802;52.574;14.398;2024-03-17T05:56:42;6.73;5.89;4.22;2.05;16.42;16.31;15.88;13.85;8.60;0.93
77638;SPS30;66802;52.574;14.398;2024-03-17T05:59:07;7.51;6.58;4.73;2.32;18.62;18.49;18.02;15.77;9.90;0.92
77638;SPS30;66802;52.574;14.398;2024-03-17T06:01:33;6.78;5.93;4.25;2.07;16.57;16.45;16.02;13.98;8.68;0.92
77638;SPS30;66802;52.574;14.398;2024-03-17T06:03:58;7.57;6.66;4.84;2.46;19.74;19.61;19.15;16.94;10.97;0.89
77638;SPS30;66802;52.574;14.398;2024-03-17T06:06:25;7.43;6.54;4.76;2.43;19.51;19.39;18.93;16.77;10.91;0.89
77638;SPS30;66802;52.574;14.398;2024-03-17T06:08:53;7.56;6.63;4.79;2.38;19.09;18.96;18.50;16.25;10.32;0.91
77638;SPS30;66802;52.574;14.398;2024-03-17T06:11:18;7.89;6.89;4.90;2.32;18.64;18.50;18.00;15.58;9.44;0.95
77638;SPS30;66802;52.574;14.398;2024-03-17T06:13:44;7.49;6.55;4.69;2.27;18.22;18.09;17.62;15.36;9.51;0.94
77638;SPS30;66802;52.574;14.398;2024-03-17T06:16:09;7.76;6.80;4.88;2.38;19.13;19.00;18.51;16.18;10.10;0.93
77638;SPS30;66802;52.574;14.398;2024-03-17T06:18:35;6.56;5.76;4.15;2.06;16.52;16.40;15.99;14.04;8.90;0.93
77638;SPS30;66802;52.574;14.398;2024-03-17T06:21:00;6.99;6.12;4.39;2.14;17.17;17.05;16.61;14.51;9.04;0.93
77638;SPS30;66802;52.574;14.398;2024-03-17T06:23:25;7.71;6.76;4.85;2.37;19.02;18.89;18.40;16.09;10.05;0.93
77638;SPS30;66802;52.574;14.398;2024-03-17T06:25:54;6.81;5.98;4.33;2.16;17.36;17.24;16.82;14.80;9.45;0.92
77638;SPS30;66802;52.574;14.398;2024-03-17T06:28:26;7.25;6.38;4.65;2.38;19.10;18.98;18.54;16.43;10.71;0.90
77638;SPS30;66802;52.574;14.398;2024-03-17T06:30:58;6.88;6.06;4.44;2.31;18.54;18.43;18.02;16.04;10.60;0.89
77638;SPS30;66802;52.574;14.398;2024-03-17T06:33:24;6.36;5.61;4.12;2.16;17.34;17.23;16.86;15.04;9.99;0.90
77638;SPS30;66802;52.574;14.398;2024-03-17T06:35:50;6.75;5.96;4.38;2.30;18.48;18.37;17.96;16.04;10.68;0.89
77638;SPS30;66802;52.574;14.398;2024-03-17T06:38:16;7.08;6.24;4.58;2.40;19.22;19.10;18.68;16.65;11.04;0.88
77638;SPS30;66802;52.574;14.398;2024-03-17T06:40:50;6.80;5.99;4.39;2.28;18.27;18.16;17.75;15.79;10.42;0.88
77638;SPS30;66802;52.574;14.398;2024-03-17T06:43:20;7.15;6.32;4.65;2.46;19.75;19.64;19.21;17.18;11.50;0.86
77638;SPS30;66802;52.574;14.398;2024-03-17T06:45:55;6.33;5.62;4.19;2.31;18.53;18.43;18.06;16.32;11.26;0.84
77638;SPS30;66802;52.574;14.398;2024-03-17T06:48:24;6.76;5.99;4.45;2.41;19.35;19.24;18.85;16.96;11.57;0.87
77638;SPS30;66802;52.574;14.398;2024-03-17T06:50:52;7.00;6.17;4.52;2.35;18.83;18.71;18.29;16.28;10.74;0.90
77638;SPS30;66802;52.574;14.398;2024-03-17T06:53:20;7.29;6.42;4.70;2.44;19.54;19.42;18.98;16.88;11.12;0.89
77638;SPS30;66802;52.574;14.398;2024-03-17T06:55:52;7.75;6.83;4.98;2.57;20.57;20.44;19.97;17.72;11.60;0.89
77638;SPS30;66802;52.574;14.398;2024-03-17T06:58:19;7.26;6.39;4.66;2.40;19.24;19.12;18.68;16.57;10.84;0.88
77638;SPS30;66802;52.574;14.398;2024-03-17T07:00:57;7.12;6.28;4.60;2.41;19.28;19.16;18.74;16.70;11.06;0.87
77638;SPS30;66802;52.574;14.398;2024-03-17T07:03:30;8.21;7.22;5.23;2.64;21.20;21.06;20.56;18.15;11.69;0.90
77638;SPS30;66802;52.574;14.398;2024-03-17T07:05:58;6.64;5.87;4.35;2.34;18.75;18.64;18.25;16.39;11.10;0.88
77638;SPS30;66802;52.574;14.398;2024-03-17T07:08:32;6.91;6.13;4.59;2.54;20.36;20.25;19.85;17.96;12.43;0.87
77638;SPS30;66802;52.574;14.398;2024-03-17T07:10:59;7.57;6.67;4.88;2.53;20.31;20.18;19.73;17.54;11.56;0.90
77638;SPS30;66802;52.574;14.398;2024-03-17T07:13:29;7.76;6.79;4.87;2.36;18.96;18.83;18.34;16.00;9.94;0.94
77638;SPS30;66802;52.574;14.398;2024-03-17T07:16:06;7.47;6.54;4.70;2.31;18.51;18.38;17.91;15.67;9.83;0.93
77638;SPS30;66802;52.574;14.398;2024-03-17T07:18:32;6.38;5.64;4.16;2.21;17.71;17.60;17.23;15.42;10.35;0.88
77638;SPS30;66802;52.574;14.398;2024-03-17T07:20:59;6.83;6.04;4.48;2.42;19.36;19.25;18.85;16.93;11.49;0.86
77638;SPS30;66802;52.574;14.398;2024-03-17T07:23:25;5.90;5.22;3.87;2.09;16.73;16.63;16.29;14.64;9.94;0.86
77638;SPS30;66802;52.574;14.398;2024-03-17T07:25:52;5.94;5.28;3.98;2.25;18.03;17.94;17.60;16.01;11.23;0.82
77638;SPS30;66802;52.574;14.398;2024-03-17T07:28:19;6.29;5.59;4.22;2.38;19.09;18.99;18.64;16.95;11.89;0.83
77638;SPS30;66802;52.574;14.398;2024-03-17T07:30:48;6.50;5.78;4.34;2.44;19.53;19.43;19.06;17.30;12.08;0.84
77638;SPS30;66802;52.574;14.398;2024-03-17T07:33:18;6.05;5.37;4.02;2.23;17.84;17.74;17.40;15.74;10.90;0.86
77638;SPS30;66802;52.574;14.398;2024-03-17T07:35:47;6.02;5.33;3.95;2.13;17.05;16.95;16.60;14.91;10.11;0.87
77638;SPS30;66802;52.574;14.398;2024-03-17T07:38:37;6.49;5.70;4.11;2.05;16.44;16.33;15.93;14.00;8.91;0.93
77638;SPS30;66802;52.574;14.398;2024-03-17T07:41:03;6.19;5.44;3.96;2.02;16.22;16.11;15.74;13.93;9.06;0.91
77638;SPS30;66802;52.574;14.398;2024-03-17T07:43:31;6.54;5.79;4.30;2.33;18.66;18.56;18.18;16.36;11.14;0.87
77638;SPS30;66802;52.574;14.398;2024-03-17T07:46:08;5.90;5.22;3.88;2.11;16.87;16.78;16.43;14.79;10.09;0.86
77638;SPS30;66802;52.574;14.398;2024-03-17T07:48:54;5.97;5.30;3.96;2.18;17.48;17.38;17.04;15.40;10.62;0.84
77638;SPS30;66802;52.574;14.398;2024-03-17T07:51:19;5.97;5.31;3.98;2.23;17.84;17.75;17.41;15.79;11.00;0.84
77638;SPS30;66802;52.574;14.398;2024-03-17T07:53:46;5.30;4.72;3.56;2.02;16.22;16.14;15.84;14.42;10.15;0.82
77638;SPS30;66802;52.574;14.398;2024-03-17T07:56:15;6.01;5.33;3.99;2.21;17.74;17.65;17.31;15.66;10.85;0.84
77638;SPS30;66802;52.574;14.398;2024-03-17T07:58:42;5.77;5.12;3.82;2.10;16.82;16.73;16.40;14.81;10.20;0.85
77638;SPS30;66802;52.574;14.398;2024-03-17T08:01:14;6.31;5.60;4.20;2.34;18.73;18.63;18.27;16.55;11.49;0.85
77638;SPS30;66802;52.574;14.398;2024-03-17T08:03:51;11.45;10.64;9.04;6.68;53.42;53.30;52.89;50.82;40.88;0.66
77638;SPS30;66802;52.574;14.398;2024-03-17T08:06:20;6.19;5.95;5.47;4.61;36.83;36.79;36.66;35.97;30.29;0.59
77638;SPS30;66802;52.574;14.398;2024-03-17T08:08:47;5.88;5.71;5.36;4.66;37.21;37.18;37.08;36.55;31.06;0.58
77638;SPS30;66802;52.574;14.398;2024-03-17T08:11:15;4.45;4.26;3.89;3.24;25.93;25.90;25.80;25.28;21.21;0.62
77638;SPS30;66802;52.574;14.398;2024-03-17T08:13:43;4.49;4.21;3.65;2.79;22.34;22.30;22.15;21.42;17.46;0.66
77638;SPS30;66802;52.574;14.398;2024-03-17T08:16:08;7.17;6.80;6.05;4.86;38.82;38.77;38.57;37.56;31.12;0.62
77638;SPS30;66802;52.574;14.398;2024-03-17T08:18:34;5.06;4.89;4.55;3.91;31.22;31.19;31.10;30.60;25.91;0.58
77638;SPS30;66802;52.574;14.398;2024-03-17T08:21:02;4.64;4.49;4.18;3.60;28.73;28.70;28.62;28.16;23.86;0.60
77638;SPS30;66802;52.574;14.398;2024-03-17T08:23:32;5.01;4.80;4.38;3.65;29.20;29.17;29.06;28.47;23.89;0.61
77638;SPS30;66802;52.574;14.398;2024-03-17T08:26:04;5.20;4.96;4.49;3.69;29.50;29.46;29.33;28.68;23.96;0.61
77638;SPS30;66802;52.574;14.398;2024-03-17T08:28:33;4.30;4.10;3.71;3.04;24.31;24.28;24.18;23.63;19.73;0.62
77638;SPS30;66802;52.574;14.398;2024-03-17T08:31:02;5.33;5.07;4.56;3.71;29.62;29.58;29.45;28.74;23.92;0.62
77638;SPS30;66802;52.574;14.398;2024-03-17T08:33:29;5.35;5.07;4.49;3.58;28.63;28.59;28.44;27.67;22.88;0.63
77638;SPS30;66802;52.574;14.398;2024-03-17T08:38:34;4.92;4.64;4.09;3.22;25.76;25.72;25.57;24.84;20.46;0.65
77638;SPS30;66802;52.574;14.398;2024-03-17T08:41:02;5.53;5.16;4.42;3.32;26.56;26.51;26.31;25.36;20.52;0.68
77638;SPS30;66802;52.574;14.398;2024-03-17T08:43:34;4.62;4.32;3.73;2.83;22.66;22.61;22.46;21.69;17.63;0.67
77638;SPS30;66802;52.574;14.398;2024-03-17T08:46:03;5.12;4.82;4.22;3.29;26.31;26.27;26.11;25.31;20.77;0.65
77638;SPS30;66802;52.574;14.398;2024-03-17T08:48:31;4.78;4.53;4.04;3.24;25.93;25.89;25.76;25.10;20.81;0.63
77638;SPS30;66802;52.574;14.398;2024-03-17T08:50:59;7.58;7.24;6.56;5.42;43.28;43.22;43.04;42.10;35.21;0.61
77638;SPS30;66802;52.574;14.398;2024-03-17T08:53:29;22.73;21.43;18.83;14.79;118.18;117.98;117.29;113.85;93.64;0.71
77638;SPS30;66802;52.574;14.398;2024-03-17T08:55:55;14.18;13.38;11.77;9.26;74.00;73.88;73.46;71.32;58.70;0.68
77638;SPS30;66802;52.574;14.398;2024-03-17T08:58:23;8.15;7.83;7.19;6.06;48.39;48.34;48.16;47.26;39.77;0.62
77638;SPS30;66802;52.574;14.398;2024-03-17T09:00:49;6.23;6.02;5.58;4.77;38.10;38.07;37.95;37.31;31.54;0.62
77638;SPS30;66802;52.574;14.398;2024-03-17T09:03:16;6.30;6.15;5.84;5.16;41.18;41.16;41.07;40.57;34.63;0.59
77638;SPS30;66802;52.574;14.398;2024-03-17T09:05:42;5.18;5.05;4.79;4.22;33.73;33.70;33.63;33.21;28.34;0.58
77638;SPS30;66802;52.574;14.398;2024-03-17T09:08:19;4.39;4.25;3.96;3.42;27.29;27.27;27.19;26.77;22.69;0.59
77638;SPS30;66802;52.574;14.398;2024-03-17T09:10:48;4.74;4.59;4.29;3.70;29.56;29.53;29.45;29.00;24.59;0.58
77638;SPS30;66802;52.574;14.398;2024-03-17T09:13:22;4.82;4.68;4.38;3.80;30.33;30.31;30.22;29.78;25.28;0.59
77638;SPS30;66802;52.574;14.398;2024-03-17T09:16:01;4.49;4.37;4.13;3.63;28.96;28.94;28.87;28.49;24.28;0.59
77638;SPS30;66802;52.574;14.398;2024-03-17T09:18:30;3.55;3.49;3.37;3.05;24.35;24.34;24.30;24.09;20.70;0.56
77638;SPS30;66802;52.574;14.398;2024-03-17T09:21:01;3.70;3.63;3.48;3.12;24.96;24.94;24.90;24.65;21.14;0.58
77638;SPS30;66802;52.574;14.398;2024-03-17T09:23:32;3.45;3.39;3.27;2.96;23.65;23.64;23.61;23.40;20.11;0.56
77638;SPS30;66802;52.574;14.398;2024-03-17T09:26:02;2.44;2.39;2.30;2.07;16.49;16.48;16.46;16.30;13.98;0.55
77638;SPS30;66802;52.574;14.398;2024-03-17T09:28:30;2.57;2.54;2.46;2.24;17.93;17.92;17.90;17.75;15.29;0.54
77638;SPS30;66802;52.574;14.398;2024-03-17T09:30:57;3.07;3.03;2.95;2.70;21.54;21.53;21.50;21.34;18.39;0.54
77638;SPS30;66802;52.574;14.398;2024-03-17T09:33:24;3.46;3.44;3.39;3.15;25.16;25.16;25.14;25.00;21.65;0.51
77638;SPS30;66802;52.574;14.398;2024-03-17T09:35:57;3.04;3.04;3.03;2.85;22.76;22.75;22.74;22.66;19.68;0.48
77638;SPS30;66802;52.574;14.398;2024-03-17T09:38:25;2.74;2.74;2.73;2.58;20.64;20.63;20.63;20.56;17.88;0.46
77638;SPS30;66802;52.574;14.398;2024-03-17T09:40:52;2.56;2.55;2.54;2.40;19.12;19.12;19.11;19.04;16.54;0.48
77638;SPS30;66802;52.574;14.398;2024-03-17T09:43:18;2.59;2.58;2.56;2.40;19.18;19.18;19.17;19.09;16.56;0.49
77638;SPS30;66802;52.574;14.398;2024-03-17T09:45:48;3.21;3.20;3.19;3.01;24.01;24.00;23.99;23.91;20.77;0.47
77638;SPS30;66802;52.574;14.398;2024-03-17T09:48:15;3.20;3.20;3.20;3.03;24.19;24.19;24.18;24.11;20.96;0.45
77638;SPS30;66802;52.574;14.398;2024-03-17T09:50:46;2.88;2.88;2.88;2.72;21.74;21.74;21.73;21.66;18.84;0.44
77638;SPS30;66802;52.574;14.398;2024-03-17T09:53:22;3.06;3.06;3.06;2.89;23.11;23.10;23.10;23.02;20.02;0.44
77638;SPS30;66802;52.574;14.398;2024-03-17T09:55:51;2.89;2.89;2.89;2.73;21.80;21.80;21.79;21.72;18.89;0.45
77638;SPS30;66802;52.574;14.398;2024-03-17T09:58:18;2.25;2.25;2.24;2.12;16.92;16.92;16.91;16.86;14.65;0.46
77638;SPS30;66802;52.574;14.398;2024-03-17T10:00:45;2.32;2.32;2.32;2.19;17.49;17.48;17.48;17.42;15.15;0.45
77638;SPS30;66802;52.574;14.398;2024-03-17T10:03:11;3.05;3.05;3.05;2.88;23.03;23.02;23.02;22.95;19.95;0.46
77638;SPS30;66802;52.574;14.398;2024-03-17T10:05:37;3.43;3.43;3.43;3.24;25.89;25.89;25.88;25.80;22.43;0.46
77638;SPS30;66802;52.574;14.398;2024-03-17T10:08:03;3.58;3.58;3.58;3.39;27.07;27.06;27.05;26.97;23.45;0.45
77638;SPS30;66802;52.574;14.398;2024-03-17T10:10:29;4.54;4.54;4.53;4.28;34.18;34.18;34.17;34.05;29.60;0.46
77638;SPS30;66802;52.574;14.398;2024-03-17T10:12:54;4.82;4.81;4.81;4.55;36.30;36.30;36.29;36.17;31.45;0.46
77638;SPS30;66802;52.574;14.398;2024-03-17T10:15:20;9.55;9.55;9.55;9.03;72.10;72.08;72.06;71.84;62.47;0.45
77638;SPS30;66802;52.574;14.398;2024-03-17T10:17:45;18.40;18.32;18.16;16.98;135.60;135.57;135.49;134.88;116.95;0.47
77638;SPS30;66802;52.574;14.398;2024-03-17T10:20:11;45.57;45.07;44.07;40.51;323.48;323.35;323.02;320.82;276.91;0.51
77638;SPS30;66802;52.574;14.398;2024-03-17T10:22:55;47.25;46.63;45.40;41.49;331.34;331.19;330.80;328.30;282.93;0.52
77638;SPS30;66802;52.574;14.398;2024-03-17T10:25:24;52.18;51.62;50.49;46.43;370.80;370.66;370.28;367.79;317.49;0.49
77638;SPS30;66802;52.574;14.398;2024-03-17T10:28:00;7.60;7.59;7.57;7.14;57.00;56.99;56.97;56.77;49.33;0.46
77638;SPS30;66802;52.574;14.398;2024-03-17T10:30:26;8.40;8.36;8.28;7.74;61.79;61.78;61.74;61.45;53.27;0.48
77638;SPS30;66802;52.574;14.398;2024-03-17T10:33:00;9.30;9.29;9.29;8.78;70.08;70.07;70.05;69.82;60.70;0.42
77638;SPS30;66802;52.574;14.398;2024-03-17T10:35:31;7.58;7.58;7.58;7.16;57.21;57.20;57.18;57.00;49.57;0.38
77638;SPS30;66802;52.574;14.398;2024-03-17T10:37:59;5.73;5.73;5.73;5.41;43.23;43.22;43.21;43.07;37.46;0.39
77638;SPS30;66802;52.574;14.398;2024-03-17T10:40:27;4.20;4.20;4.20;3.97;31.70;31.70;31.69;31.59;27.47;0.41
77638;SPS30;66802;52.574;14.398;2024-03-17T10:42:59;4.10;4.10;4.10;3.88;30.97;30.96;30.95;30.86;26.83;0.40
77638;SPS30;66802;52.574;14.398;2024-03-17T10:45:26;2.94;2.94;2.94;2.78;22.18;22.18;22.17;22.11;19.22;0.41
77638;SPS30;66802;52.574;14.398;2024-03-17T10:47:55;3.39;3.39;3.39;3.21;25.61;25.61;25.60;25.52;22.19;0.44
77638;SPS30;66802;52.574;14.398;2024-03-17T10:50:25;4.10;4.10;4.10;3.87;30.94;30.93;30.92;30.83;26.81;0.45
77638;SPS30;66802;52.574;14.398;2024-03-17T10:52:55;4.44;4.44;4.44;4.20;33.56;33.55;33.54;33.44;29.08;0.42
77638;SPS30;66802;52.574;14.398;2024-03-17T10:55:40;3.21;3.21;3.21;3.03;24.22;24.22;24.21;24.14;20.99;0.42
77638;SPS30;66802;52.574;14.398;2024-03-17T10:58:07;3.48;3.48;3.48;3.29;26.25;26.25;26.24;26.16;22.75;0.42
77638;SPS30;66802;52.574;14.398;2024-03-17T11:01:02;4.07;4.07;4.07;3.85;30.74;30.73;30.73;30.63;26.63;0.41
77638;SPS30;66802;52.574;14.398;2024-03-17T11:03:32;4.66;4.66;4.66;4.40;35.16;35.15;35.14;35.03;30.46;0.43
77638;SPS30;66802;52.574;14.398;2024-03-17T11:06:03;4.19;4.19;4.19;3.96;31.63;31.63;31.62;31.52;27.41;0.45
77638;SPS30;66802;52.574;14.398;2024-03-17T11:08:31;3.80;3.80;3.80;3.59;28.66;28.65;28.64;28.55;24.83;0.45
77638;SPS30;66802;52.574;14.398;2024-03-17T11:10:58;3.90;3.90;3.89;3.68;29.37;29.36;29.35;29.26;25.43;0.45
77638;SPS30;66802;52.574;14.398;2024-03-17T11:13:27;2.62;2.62;2.62;2.48;19.78;19.78;19.77;19.71;17.14;0.45
77638;SPS30;66802;52.574;14.398;2024-03-17T11:15:54;4.33;4.33;4.33;4.09;32.66;32.65;32.64;32.54;28.30;0.44
77638;SPS30;66802;52.574;14.398;2024-03-17T11:23:54;3.12;3.12;3.11;2.94;23.46;23.45;23.45;23.37;20.31;0.47
77638;SPS30;66802;52.574;14.398;2024-03-17T11:26:29;2.60;2.59;2.57;2.42;19.31;19.30;19.29;19.22;16.68;0.49
77638;SPS30;66802;52.574;14.398;2024-03-17T11:28:57;2.69;2.68;2.67;2.51;20.07;20.06;20.06;19.98;17.35;0.47
77638;SPS30;66802;52.574;14.398;2024-03-17T11:36:57;2.95;2.95;2.95;2.79;22.24;22.24;22.23;22.16;19.27;0.45
77638;SPS30;66802;52.574;14.398;2024-03-17T11:42:21;2.38;2.37;2.36;2.21;17.68;17.67;17.67;17.60;15.27;0.47
77638;SPS30;66802;52.574;14.398;2024-03-17T11:45:01;2.65;2.64;2.64;2.49;19.86;19.85;19.85;19.78;17.18;0.46
77638;SPS30;66802;52.574;14.398;2024-03-17T11:47:38;2.79;2.79;2.79;2.64;21.04;21.04;21.03;20.96;18.23;0.46
77638;SPS30;66802;52.574;14.398;2024-03-17T11:50:08;3.32;3.32;3.32;3.14;25.05;25.04;25.04;24.96;21.70;0.45
77638;SPS30;66802;52.574;14.398;2024-03-17T11:52:36;3.49;3.49;3.49;3.30;26.38;26.37;26.37;26.28;22.85;0.44
77638;SPS30;66802;52.574;14.398;2024-03-17T11:55:02;5.17;5.17;5.17;4.89;39.02;39.01;39.00;38.88;33.81;0.45
77638;SPS30;66802;52.574;14.398;2024-03-17T11:57:28;2.62;2.62;2.62;2.47;19.75;19.74;19.74;19.68;17.11;0.45
77638;SPS30;66802;52.574;14.398;2024-03-17T11:59:55;2.37;2.37;2.37;2.24;17.86;17.85;17.85;17.79;15.47;0.43
77638;SPS30;66802;52.574;14.398;2024-03-17T12:02:30;2.75;2.75;2.75;2.60;20.77;20.77;20.76;20.70;18.00;0.44
77638;SPS30;66802;52.574;14.398;2024-03-17T12:04:57;2.11;2.11;2.11;2.00;15.95;15.94;15.94;15.89;13.82;0.45
77638;SPS30;66802;52.574;14.398;2024-03-17T12:07:25;2.02;2.02;2.02;1.91;15.26;15.26;15.26;15.21;13.23;0.44
77638;SPS30;66802;52.574;14.398;2024-03-17T12:09:53;2.29;2.29;2.29;2.17;17.31;17.31;17.30;17.25;15.00;0.43
77638;SPS30;66802;52.574;14.398;2024-03-17T12:12:20;2.91;2.91;2.91;2.75;21.96;21.95;21.95;21.88;19.03;0.43
77638;SPS30;66802;52.574;14.398;2024-03-17T12:14:48;2.63;2.63;2.63;2.48;19.83;19.83;19.82;19.76;17.19;0.44
77638;SPS30;66802;52.574;14.398;2024-03-17T12:17:20;2.37;2.37;2.37;2.24;17.86;17.85;17.85;17.79;15.47;0.44
77638;SPS30;66802;52.574;14.398;2024-03-17T12:19:47;2.36;2.36;2.36;2.24;17.85;17.85;17.85;17.79;15.47;0.43
77638;SPS30;66802;52.574;14.398;2024-03-17T12:22:20;2.08;2.08;2.08;1.97;15.70;15.69;15.69;15.64;13.60;0.43
77638;SPS30;66802;52.574;14.398;2024-03-17T12:24:47;2.53;2.53;2.53;2.39;19.10;19.10;19.09;19.03;16.55;0.44
77638;SPS30;66802;52.574;14.398;2024-03-17T12:27:18;2.48;2.47;2.47;2.32;18.56;18.55;18.54;18.48;16.05;0.47
77638;SPS30;66802;52.574;14.398;2024-03-17T12:29:46;2.51;2.51;2.50;2.36;18.85;18.85;18.84;18.78;16.31;0.47